sensor_id;sensor_type;location;lat;lon;timestamp;pressure;altitude;pressure_sealevel;temperature;humidity
6599;BME280;3335;43.198;27.918;2023-03-22T00:00:07;149541.09;;;9.11;100.00
6599;BME280;3335;43.198;27.918;2023-03-22T00:02:37;149556.09;;;9.17;100.00
6599;BME280;3335;43.198;27.918;2023-03-22T00:05:05;149551.06;;;9.15;100.00
6599;BME280;3335;43.198;27.918;2023-03-22T00:07:32;149534.84;;;9.08;100.00
6599;BME280;3335;43.198;27.918;2023-03-22T00:09:59;149523.59;;;9.04;100.00
6599;BME280;3335;43.198;27.918;2023-03-22T00:12:25;149536.09;;;9.09;100.00
6599;BME280;3335;43.198;27.918;2023-03-22T00:14:54;149546.06;;;9.13;100.00
6599;BME280;3335;43.198;27.918;2023-03-22T00:17:21;149551.06;;;9.15;100.00
6599;BME280;3335;43.198;27.918;2023-03-22T00:19:50;149544.81;;;9.12;100.00
6599;BME280;3335;43.198;27.918;2023-03-22T00:22:18;149546.06;;;9.13;100.00
6599;BME280;3335;43.198;27.918;2023-03-22T00:24:46;149528.63;;;9.06;100.00
6599;BME280;3335;43.198;27.918;2023-03-22T00:27:13;149546.06;;;9.13;100.00
6599;BME280;3335;43.198;27.918;2023-03-22T00:29:40;149558.53;;;9.18;100.00
6599;BME280;3335;43.198;27.918;2023-03-22T00:32:08;149547.31;;;9.13;100.00
6599;BME280;3335;43.198;27.918;2023-03-22T00:34:35;149562.31;;;9.19;100.00
6599;BME280;3335;43.198;27.918;2023-03-22T00:37:02;149564.81;;;9.20;100.00
6599;BME280;3335;43.198;27.918;2023-03-22T00:39:29;149553.56;;;9.16;100.00
6599;BME280;3335;43.198;27.918;2023-03-22T00:41:56;149557.28;;;9.17;100.00
6599;BME280;3335;43.198;27.918;2023-03-22T00:44:23;149554.84;;;9.16;100.00
6599;BME280;3335;43.198;27.918;2023-03-22T00:46:50;149554.84;;;9.16;100.00
6599;BME280;3335;43.198;27.918;2023-03-22T00:49:18;149548.56;;;9.14;100.00
6599;BME280;3335;43.198;27.918;2023-03-22T00:51:46;149551.06;;;9.15;100.00
6599;BME280;3335;43.198;27.918;2023-03-22T00:54:13;149548.56;;;9.14;100.00
6599;BME280;3335;43.198;27.918;2023-03-22T00:56:41;149563.56;;;9.20;100.00
6599;BME280;3335;43.198;27.918;2023-03-22T00:59:10;149536.09;;;9.09;100.00
6599;BME280;3335;43.198;27.918;2023-03-22T01:01:37;149548.56;;;9.14;100.00
6599;BME280;3335;43.198;27.918;2023-03-22T01:04:04;149546.06;;;9.13;100.00
6599;BME280;3335;43.198;27.918;2023-03-22T01:06:33;149551.06;;;9.15;100.00
6599;BME280;3335;43.198;27.918;2023-03-22T01:09:00;149553.56;;;9.16;100.00
6599;BME280;3335;43.198;27.918;2023-03-22T01:11:28;149546.06;;;9.13;100.00
6599;BME280;3335;43.198;27.918;2023-03-22T01:13:54;149506.16;;;8.97;100.00
6599;BME280;3335;43.198;27.918;2023-03-22T01:16:21;149532.38;;;9.07;100.00
6599;BME280;3335;43.198;27.918;2023-03-22T01:18:48;149538.59;;;9.10;100.00
6599;BME280;3335;43.198;27.918;2023-03-22T01:21:15;149542.34;;;9.11;100.00
6599;BME280;3335;43.198;27.918;2023-03-22T01:23:44;149523.59;;;9.04;100.00
6599;BME280;3335;43.198;27.918;2023-03-22T01:26:10;149516.13;;;9.01;100.00
6599;BME280;3335;43.198;27.918;2023-03-22T01:28:37;149496.19;;;8.93;100.00
6599;BME280;3335;43.198;27.918;2023-03-22T01:31:05;149504.91;;;8.96;100.00
6599;BME280;3335;43.198;27.918;2023-03-22T01:33:32;149493.69;;;8.92;100.00
6599;BME280;3335;43.198;27.918;2023-03-22T01:35:59;149498.66;;;8.94;100.00
6599;BME280;3335;43.198;27.918;2023-03-22T01:38:26;149492.44;;;8.91;100.00
6599;BME280;3335;43.198;27.918;2023-03-22T01:40:54;149486.16;;;8.89;100.00
6599;BME280;3335;43.198;27.918;2023-03-22T01:43:21;149498.66;;;8.94;100.00
6599;BME280;3335;43.198;27.918;2023-03-22T01:45:49;149511.13;;;8.99;100.00
6599;BME280;3335;43.198;27.918;2023-03-22T01:48:23;149521.09;;;9.03;100.00
6599;BME280;3335;43.198;27.918;2023-03-22T01:51:02;149513.63;;;9.00;100.00
6599;BME280;3335;43.198;27.918;2023-03-22T01:53:34;149518.63;;;9.02;100.00
6599;BME280;3335;43.198;27.918;2023-03-22T01:56:04;149538.59;;;9.10;100.00
6599;BME280;3335;43.198;27.918;2023-03-22T01:58:33;149523.59;;;9.04;100.00
6599;BME280;3335;43.198;27.918;2023-03-22T02:01:01;149508.66;;;8.98;100.00
6599;BME280;3335;43.198;27.918;2023-03-22T02:03:35;149513.63;;;9.00;100.00
6599;BME280;3335;43.198;27.918;2023-03-22T02:06:04;149501.16;;;8.95;100.00
6599;BME280;3335;43.198;27.918;2023-03-22T02:08:31;149512.38;;;8.99;100.00
6599;BME280;3335;43.198;27.918;2023-03-22T02:10:59;149513.63;;;9.00;100.00
6599;BME280;3335;43.198;27.918;2023-03-22T02:13:57;149506.16;;;8.97;100.00
6599;BME280;3335;43.198;27.918;2023-03-22T02:16:33;149511.13;;;8.99;100.00
6599;BME280;3335;43.198;27.918;2023-03-22T02:22:22;149514.88;;;9.00;100.00
6599;BME280;3335;43.198;27.918;2023-03-22T02:28:28;149501.16;;;8.95;100.00
6599;BME280;3335;43.198;27.918;2023-03-22T02:37:49;149503.66;;;8.96;100.00
6599;BME280;3335;43.198;27.918;2023-03-22T02:40:28;149509.88;;;8.98;100.00
6599;BME280;3335;43.198;27.918;2023-03-22T02:43:01;149368.91;;;8.41;100.00
6599;BME280;3335;43.198;27.918;2023-03-22T02:45:38;149508.66;;;8.98;100.00
6599;BME280;3335;43.198;27.918;2023-03-22T02:48:14;149486.16;;;8.89;100.00
6599;BME280;3335;43.198;27.918;2023-03-22T02:50:48;149471.22;;;8.83;100.00
6599;BME280;3335;43.198;27.918;2023-03-22T02:53:21;149452.50;;;8.75;100.00
6599;BME280;3335;43.198;27.918;2023-03-22T02:55:54;149448.78;;;8.73;100.00
6599;BME280;3335;43.198;27.918;2023-03-22T02:58:25;149433.78;;;8.67;100.00
6599;BME280;3335;43.198;27.918;2023-03-22T03:00:57;149433.78;;;8.67;100.00
6599;BME280;3335;43.198;27.918;2023-03-22T03:03:27;149448.78;;;8.73;100.00
6599;BME280;3335;43.198;27.918;2023-03-22T03:05:57;149466.22;;;8.81;100.00
6599;BME280;3335;43.198;27.918;2023-03-22T03:08:26;149453.75;;;8.75;100.00
6599;BME280;3335;43.198;27.918;2023-03-22T03:10:54;149438.81;;;8.69;100.00
6599;BME280;3335;43.198;27.918;2023-03-22T03:13:21;149455.00;;;8.76;100.00
6599;BME280;3335;43.198;27.918;2023-03-22T03:15:51;149466.22;;;8.81;100.00
6599;BME280;3335;43.198;27.918;2023-03-22T03:18:29;149461.25;;;8.78;100.00
6599;BME280;3335;43.198;27.918;2023-03-22T03:21:04;149483.72;;;8.88;100.00
6599;BME280;3335;43.198;27.918;2023-03-22T03:23:43;149478.69;;;8.86;100.00
6599;BME280;3335;43.198;27.918;2023-03-22T03:26:20;149463.72;;;8.79;100.00
6599;BME280;3335;43.198;27.918;2023-03-22T03:28:51;149456.25;;;8.76;100.00
6599;BME280;3335;43.198;27.918;2023-03-22T03:31:29;149453.75;;;8.75;100.00
6599;BME280;3335;43.198;27.918;2023-03-22T03:34:04;149487.41;;;8.89;100.00
6599;BME280;3335;43.198;27.918;2023-03-22T03:36:35;149476.19;;;8.85;100.00
6599;BME280;3335;43.198;27.918;2023-03-22T03:39:07;149484.97;;;8.88;100.00
6599;BME280;3335;43.198;27.918;2023-03-22T03:41:39;149513.63;;;9.00;100.00
6599;BME280;3335;43.198;27.918;2023-03-22T03:44:08;149486.16;;;8.89;100.00
6599;BME280;3335;43.198;27.918;2023-03-22T03:46:35;149486.16;;;8.89;100.00
6599;BME280;3335;43.198;27.918;2023-03-22T03:49:03;149508.66;;;8.98;100.00
6599;BME280;3335;43.198;27.918;2023-03-22T03:51:32;149468.72;;;8.82;100.00
6599;BME280;3335;43.198;27.918;2023-03-22T03:53:59;149488.66;;;8.90;100.00
6599;BME280;3335;43.198;27.918;2023-03-22T03:56:26;149478.69;;;8.86;100.00
6599;BME280;3335;43.198;27.918;2023-03-22T03:58:54;149477.44;;;8.85;100.00
6599;BME280;3335;43.198;27.918;2023-03-22T04:01:22;149476.19;;;8.85;100.00
6599;BME280;3335;43.198;27.918;2023-03-22T04:03:50;149468.72;;;8.82;100.00
6599;BME280;3335;43.198;27.918;2023-03-22T04:06:20;149476.19;;;8.85;100.00
6599;BME280;3335;43.198;27.918;2023-03-22T04:08:47;149486.16;;;8.89;100.00
6599;BME280;3335;43.198;27.918;2023-03-22T04:11:18;149483.72;;;8.88;100.00
6599;BME280;3335;43.198;27.918;2023-03-22T04:13:45;149487.41;;;8.89;100.00
6599;BME280;3335;43.198;27.918;2023-03-22T04:16:13;149502.41;;;8.95;100.00
6599;BME280;3335;43.198;27.918;2023-03-22T04:18:40;149478.69;;;8.86;100.00
6599;BME280;3335;43.198;27.918;2023-03-22T04:21:07;149482.47;;;8.87;100.00
6599;BME280;3335;43.198;27.918;2023-03-22T04:23:36;149486.16;;;8.89;100.00
6599;BME280;3335;43.198;27.918;2023-03-22T04:26:04;149494.94;;;8.92;100.00
6599;BME280;3335;43.198;27.918;2023-03-22T04:28:31;149486.16;;;8.89;100.00
6599;BME280;3335;43.198;27.918;2023-03-22T04:30:58;149493.69;;;8.92;100.00
6599;BME280;3335;43.198;27.918;2023-03-22T04:33:29;149503.66;;;8.96;100.00
6599;BME280;3335;43.198;27.918;2023-03-22T04:36:04;149491.19;;;8.91;100.00
6599;BME280;3335;43.198;27.918;2023-03-22T04:38:35;149501.16;;;8.95;100.00
6599;BME280;3335;43.198;27.918;2023-03-22T04:41:05;149504.91;;;8.96;100.00
6599;BME280;3335;43.198;27.918;2023-03-22T04:43:32;149502.41;;;8.95;100.00
6599;BME280;3335;43.198;27.918;2023-03-22T04:45:59;149498.66;;;8.94;100.00
6599;BME280;3335;43.198;27.918;2023-03-22T04:48:28;149493.69;;;8.92;100.00
6599;BME280;3335;43.198;27.918;2023-03-22T04:50:56;149508.66;;;8.98;100.00
6599;BME280;3335;43.198;27.918;2023-03-22T04:53:28;149514.88;;;9.00;100.00
6599;BME280;3335;43.198;27.918;2023-03-22T04:55:55;149508.66;;;8.98;100.00
6599;BME280;3335;43.198;27.918;2023-03-22T04:58:23;149461.25;;;8.78;100.00
6599;BME280;3335;43.198;27.918;2023-03-22T05:00:50;149488.66;;;8.90;100.00
6599;BME280;3335;43.198;27.918;2023-03-22T05:03:18;149498.66;;;8.94;100.00
6599;BME280;3335;43.198;27.918;2023-03-22T05:05:51;149503.66;;;8.96;100.00
6599;BME280;3335;43.198;27.918;2023-03-22T05:08:19;149492.44;;;8.91;100.00
6599;BME280;3335;43.198;27.918;2023-03-22T05:10:46;149486.16;;;8.89;100.00
6599;BME280;3335;43.198;27.918;2023-03-22T05:13:13;149518.63;;;9.02;100.00
6599;BME280;3335;43.198;27.918;2023-03-22T05:15:40;149516.13;;;9.01;100.00
6599;BME280;3335;43.198;27.918;2023-03-22T05:18:07;149396.38;;;8.52;100.00
6599;BME280;3335;43.198;27.918;2023-03-22T05:20:34;149507.41;;;8.97;100.00
6599;BME280;3335;43.198;27.918;2023-03-22T05:23:03;149526.13;;;9.05;100.00
6599;BME280;3335;43.198;27.918;2023-03-22T05:25:30;149408.84;;;8.57;100.00
6599;BME280;3335;43.198;27.918;2023-03-22T05:27:57;149521.09;;;9.03;100.00
6599;BME280;3335;43.198;27.918;2023-03-22T05:30:26;149526.13;;;9.05;100.00
6599;BME280;3335;43.198;27.918;2023-03-22T05:32:56;149517.41;;;9.01;100.00
6599;BME280;3335;43.198;27.918;2023-03-22T05:35:25;149533.59;;;9.08;100.00
6599;BME280;3335;43.198;27.918;2023-03-22T05:37:52;149532.38;;;9.07;100.00
6599;BME280;3335;43.198;27.918;2023-03-22T05:40:20;149508.66;;;8.98;100.00
6599;BME280;3335;43.198;27.918;2023-03-22T05:42:47;149496.19;;;8.93;100.00
6599;BME280;3335;43.198;27.918;2023-03-22T05:45:14;149451.25;;;8.74;100.00
6599;BME280;3335;43.198;27.918;2023-03-22T05:47:41;149491.19;;;8.91;100.00
6599;BME280;3335;43.198;27.918;2023-03-22T05:50:09;149294.06;;;8.11;100.00
6599;BME280;3335;43.198;27.918;2023-03-22T05:52:36;149494.94;;;8.92;100.00
6599;BME280;3335;43.198;27.918;2023-03-22T05:55:04;149503.66;;;8.96;100.00
6599;BME280;3335;43.198;27.918;2023-03-22T05:57:32;149513.63;;;9.00;100.00
6599;BME280;3335;43.198;27.918;2023-03-22T05:59:59;149503.66;;;8.96;100.00
6599;BME280;3335;43.198;27.918;2023-03-22T06:02:26;149506.16;;;8.97;100.00
6599;BME280;3335;43.198;27.918;2023-03-22T06:04:53;149501.16;;;8.95;100.00
6599;BME280;3335;43.198;27.918;2023-03-22T06:07:20;149531.13;;;9.07;100.00
6599;BME280;3335;43.198;27.918;2023-03-22T06:09:47;149532.38;;;9.07;100.00
6599;BME280;3335;43.198;27.918;2023-03-22T06:12:15;149522.34;;;9.03;100.00
6599;BME280;3335;43.198;27.918;2023-03-22T06:14:44;149563.56;;;9.20;100.00
6599;BME280;3335;43.198;27.918;2023-03-22T06:17:11;149547.31;;;9.13;100.00
6599;BME280;3335;43.198;27.918;2023-03-22T06:19:38;149563.56;;;9.20;100.00
6599;BME280;3335;43.198;27.918;2023-03-22T06:22:05;149578.53;;;9.26;100.00
6599;BME280;3335;43.198;27.918;2023-03-22T06:24:32;149593.47;;;9.32;100.00
6599;BME280;3335;43.198;27.918;2023-03-22T06:26:59;149596.00;;;9.33;100.00
6599;BME280;3335;43.198;27.918;2023-03-22T06:29:26;149598.50;;;9.34;100.00
6599;BME280;3335;43.198;27.918;2023-03-22T06:31:54;149608.47;;;9.38;100.00
6599;BME280;3335;43.198;27.918;2023-03-22T06:34:21;149602.25;;;9.36;100.00
6599;BME280;3335;43.198;27.918;2023-03-22T06:36:48;149625.97;;;9.45;100.00
6599;BME280;3335;43.198;27.918;2023-03-22T06:39:15;149618.44;;;9.42;100.00
6599;BME280;3335;43.198;27.918;2023-03-22T06:41:42;149588.53;;;9.30;100.00
6599;BME280;3335;43.198;27.918;2023-03-22T06:44:08;149608.47;;;9.38;100.00
6599;BME280;3335;43.198;27.918;2023-03-22T06:46:35;149615.94;;;9.41;100.00
6599;BME280;3335;43.198;27.918;2023-03-22T06:49:04;149663.38;;;9.60;100.00
6599;BME280;3335;43.198;27.918;2023-03-22T06:51:31;149678.38;;;9.66;100.00
6599;BME280;3335;43.198;27.918;2023-03-22T06:53:57;149663.38;;;9.60;100.00
6599;BME280;3335;43.198;27.918;2023-03-22T06:56:24;149684.63;;;9.69;100.00
6599;BME280;3335;43.198;27.918;2023-03-22T06:58:52;149665.88;;;9.61;100.00
6599;BME280;3335;43.198;27.918;2023-03-22T07:01:22;149679.63;;;9.67;100.00
6599;BME280;3335;43.198;27.918;2023-03-22T07:03:50;149670.91;;;9.63;100.00
6599;BME280;3335;43.198;27.918;2023-03-22T07:06:18;149632.19;;;9.48;100.00
6599;BME280;3335;43.198;27.918;2023-03-22T07:08:45;149667.16;;;9.62;100.00
6599;BME280;3335;43.198;27.918;2023-03-22T07:11:12;149662.13;;;9.60;100.00
6599;BME280;3335;43.198;27.918;2023-03-22T07:13:39;149669.66;;;9.63;100.00
6599;BME280;3335;43.198;27.918;2023-03-22T07:16:07;149670.91;;;9.63;100.00
6599;BME280;3335;43.198;27.918;2023-03-22T07:18:34;149669.66;;;9.63;100.00
6599;BME280;3335;43.198;27.918;2023-03-22T07:21:02;149605.97;;;9.37;100.00
6599;BME280;3335;43.198;27.918;2023-03-22T07:23:31;149586.03;;;9.29;100.00
6599;BME280;3335;43.198;27.918;2023-03-22T07:25:59;149613.50;;;9.40;100.00
6599;BME280;3335;43.198;27.918;2023-03-22T07:28:26;149639.66;;;9.51;100.00
6599;BME280;3335;43.198;27.918;2023-03-22T07:30:59;149650.91;;;9.55;100.00
6599;BME280;3335;43.198;27.918;2023-03-22T07:33:26;149639.66;;;9.51;100.00
6599;BME280;3335;43.198;27.918;2023-03-22T07:35:55;149628.44;;;9.46;100.00
6599;BME280;3335;43.198;27.918;2023-03-22T07:38:23;149670.91;;;9.63;100.00
6599;BME280;3335;43.198;27.918;2023-03-22T07:40:53;149663.38;;;9.60;100.00
6599;BME280;3335;43.198;27.918;2023-03-22T07:43:21;149653.41;;;9.56;100.00
6599;BME280;3335;43.198;27.918;2023-03-22T07:45:49;149652.16;;;9.56;100.00
6599;BME280;3335;43.198;27.918;2023-03-22T07:48:16;149648.44;;;9.54;100.00
6599;BME280;3335;43.198;27.918;2023-03-22T07:50:44;149648.44;;;9.54;100.00
6599;BME280;3335;43.198;27.918;2023-03-22T07:53:12;149653.41;;;9.56;100.00
6599;BME280;3335;43.198;27.918;2023-03-22T07:55:39;149665.88;;;9.61;100.00
6599;BME280;3335;43.198;27.918;2023-03-22T07:58:08;149679.63;;;9.67;100.00
6599;BME280;3335;43.198;27.918;2023-03-22T08:00:35;149680.88;;;9.68;100.00
6599;BME280;3335;43.198;27.918;2023-03-22T08:03:02;149658.41;;;9.58;100.00
6599;BME280;3335;43.198;27.918;2023-03-22T08:05:29;149655.91;;;9.57;100.00
6599;BME280;3335;43.198;27.918;2023-03-22T08:07:56;149655.91;;;9.57;100.00
6599;BME280;3335;43.198;27.918;2023-03-22T08:10:23;149675.88;;;9.65;100.00
6599;BME280;3335;43.198;27.918;2023-03-22T08:12:49;149640.91;;;9.51;100.00
6599;BME280;3335;43.198;27.918;2023-03-22T08:15:18;149655.91;;;9.57;100.00
6599;BME280;3335;43.198;27.918;2023-03-22T08:17:45;149608.47;;;9.38;100.00
6599;BME280;3335;43.198;27.918;2023-03-22T08:20:14;149599.75;;;9.35;100.00
6599;BME280;3335;43.198;27.918;2023-03-22T08:22:43;149635.94;;;9.49;100.00
6599;BME280;3335;43.198;27.918;2023-03-22T08:25:10;149610.97;;;9.39;100.00
6599;BME280;3335;43.198;27.918;2023-03-22T08:27:38;149625.97;;;9.45;100.00
6599;BME280;3335;43.198;27.918;2023-03-22T08:30:07;149640.91;;;9.51;100.00
6599;BME280;3335;43.198;27.918;2023-03-22T08:32:36;149655.91;;;9.57;100.00
6599;BME280;3335;43.198;27.918;2023-03-22T08:35:04;149639.66;;;9.51;100.00
6599;BME280;3335;43.198;27.918;2023-03-22T08:37:31;149648.44;;;9.54;100.00
6599;BME280;3335;43.198;27.918;2023-03-22T08:39:58;149718.34;;;9.83;100.00
6599;BME280;3335;43.198;27.918;2023-03-22T08:42:25;149729.56;;;9.87;100.00
6599;BME280;3335;43.198;27.918;2023-03-22T08:44:52;149708.38;;;9.79;100.00
6599;BME280;3335;43.198;27.918;2023-03-22T08:47:19;149712.06;;;9.80;100.00
6599;BME280;3335;43.198;27.918;2023-03-22T08:49:47;149700.84;;;9.76;100.00
6599;BME280;3335;43.198;27.918;2023-03-22T08:52:14;149703.34;;;9.77;100.00
6599;BME280;3335;43.198;27.918;2023-03-22T08:54:41;149670.91;;;9.63;100.00
6599;BME280;3335;43.198;27.918;2023-03-22T08:57:09;149640.91;;;9.51;100.00
6599;BME280;3335;43.198;27.918;2023-03-22T08:59:36;149660.91;;;9.59;100.00
6599;BME280;3335;43.198;27.918;2023-03-22T09:02:03;149620.97;;;9.43;100.00
6599;BME280;3335;43.198;27.918;2023-03-22T09:04:30;149610.97;;;9.39;100.00
6599;BME280;3335;43.198;27.918;2023-03-22T09:06:58;149625.97;;;9.45;100.00
6599;BME280;3335;43.198;27.918;2023-03-22T09:09:25;149635.94;;;9.49;100.00
6599;BME280;3335;43.198;27.918;2023-03-22T09:11:52;149648.44;;;9.54;100.00
6599;BME280;3335;43.198;27.918;2023-03-22T09:14:19;149650.91;;;9.55;100.00
6599;BME280;3335;43.198;27.918;2023-03-22T09:16:46;149554.84;;;9.16;100.00
6599;BME280;3335;43.198;27.918;2023-03-22T09:19:13;149561.06;;;9.19;100.00
6599;BME280;3335;43.198;27.918;2023-03-22T09:21:40;149541.09;;;9.11;100.00
6599;BME280;3335;43.198;27.918;2023-03-22T09:24:09;149516.13;;;9.01;100.00
6599;BME280;3335;43.198;27.918;2023-03-22T09:26:36;149528.63;;;9.06;100.00
6599;BME280;3335;43.198;27.918;2023-03-22T09:29:03;149513.63;;;9.00;100.00
6599;BME280;3335;43.198;27.918;2023-03-22T09:31:30;149496.19;;;8.93;100.00
6599;BME280;3335;43.198;27.918;2023-03-22T09:33:57;149498.66;;;8.94;100.00
6599;BME280;3335;43.198;27.918;2023-03-22T09:36:23;149513.63;;;9.00;100.00
6599;BME280;3335;43.198;27.918;2023-03-22T09:38:50;149498.66;;;8.94;100.00
6599;BME280;3335;43.198;27.918;2023-03-22T09:41:22;149438.81;;;8.69;100.00
6599;BME280;3335;43.198;27.918;2023-03-22T09:43:51;149471.22;;;8.83;100.00
6599;BME280;3335;43.198;27.918;2023-03-22T09:46:24;149446.28;;;8.72;100.00
6599;BME280;3335;43.198;27.918;2023-03-22T09:48:55;149431.28;;;8.66;100.00
6599;BME280;3335;43.198;27.918;2023-03-22T09:51:29;149433.78;;;8.67;100.00
6599;BME280;3335;43.198;27.918;2023-03-22T09:53:59;149468.72;;;8.82;100.00
6599;BME280;3335;43.198;27.918;2023-03-22T09:56:29;149426.34;;;8.64;100.00
6599;BME280;3335;43.198;27.918;2023-03-22T09:59:04;149468.72;;;8.82;100.00
6599;BME280;3335;43.198;27.918;2023-03-22T10:01:40;149463.72;;;8.79;100.00
6599;BME280;3335;43.198;27.918;2023-03-22T10:07:24;149440.00;;;8.70;100.00
6599;BME280;3335;43.198;27.918;2023-03-22T10:10:05;149463.72;;;8.79;100.00
6599;BME280;3335;43.198;27.918;2023-03-22T10:12:38;149451.25;;;8.74;100.00
6599;BME280;3335;43.198;27.918;2023-03-22T10:15:12;149451.25;;;8.74;100.00
6599;BME280;3335;43.198;27.918;2023-03-22T10:17:41;149503.66;;;8.96;100.00
6599;BME280;3335;43.198;27.918;2023-03-22T10:20:20;149478.69;;;8.86;100.00
6599;BME280;3335;43.198;27.918;2023-03-22T10:22:51;149491.19;;;8.91;100.00
6599;BME280;3335;43.198;27.918;2023-03-22T10:25:25;149448.78;;;8.73;100.00
6599;BME280;3335;43.198;27.918;2023-03-22T10:27:55;149506.16;;;8.97;100.00
6599;BME280;3335;43.198;27.918;2023-03-22T10:30:24;149493.69;;;8.92;100.00
6599;BME280;3335;43.198;27.918;2023-03-22T10:32:54;149473.72;;;8.84;100.00
6599;BME280;3335;43.198;27.918;2023-03-22T10:35:23;149466.22;;;8.81;100.00
6599;BME280;3335;43.198;27.918;2023-03-22T10:37:51;149491.19;;;8.91;100.00
6599;BME280;3335;43.198;27.918;2023-03-22T10:40:24;149464.97;;;8.80;100.00
6599;BME280;3335;43.198;27.918;2023-03-22T10:42:55;149441.25;;;8.70;100.00
6599;BME280;3335;43.198;27.918;2023-03-22T10:45:23;149461.25;;;8.78;100.00
6599;BME280;3335;43.198;27.918;2023-03-22T10:47:55;149467.47;;;8.81;100.00
6599;BME280;3335;43.198;27.918;2023-03-22T10:50:26;149479.94;;;8.86;100.00
6599;BME280;3335;43.198;27.918;2023-03-22T10:52:58;149513.63;;;9.00;100.00
6599;BME280;3335;43.198;27.918;2023-03-22T10:55:27;149533.59;;;9.08;100.00
6599;BME280;3335;43.198;27.918;2023-03-22T10:58:03;149508.66;;;8.98;100.00
6599;BME280;3335;43.198;27.918;2023-03-22T11:00:36;149518.63;;;9.02;100.00
6599;BME280;3335;43.198;27.918;2023-03-22T11:03:04;149523.59;;;9.04;100.00
6599;BME280;3335;43.198;27.918;2023-03-22T11:05:32;149487.41;;;8.89;100.00
6599;BME280;3335;43.198;27.918;2023-03-22T11:08:02;149481.22;;;8.87;100.00
6599;BME280;3335;43.198;27.918;2023-03-22T11:10:30;149461.25;;;8.78;100.00
6599;BME280;3335;43.198;27.918;2023-03-22T11:13:15;149428.78;;;8.65;100.00
6599;BME280;3335;43.198;27.918;2023-03-22T11:15:50;149458.75;;;8.77;100.00
6599;BME280;3335;43.198;27.918;2023-03-22T11:18:18;149466.22;;;8.81;100.00
6599;BME280;3335;43.198;27.918;2023-03-22T11:20:55;149478.69;;;8.86;100.00
6599;BME280;3335;43.198;27.918;2023-03-22T11:23:23;149473.72;;;8.84;100.00
6599;BME280;3335;43.198;27.918;2023-03-22T11:25:55;149494.94;;;8.92;100.00
6599;BME280;3335;43.198;27.918;2023-03-22T11:28:31;149498.66;;;8.94;100.00
6599;BME280;3335;43.198;27.918;2023-03-22T11:31:03;149486.16;;;8.89;100.00
6599;BME280;3335;43.198;27.918;2023-03-22T11:33:31;149446.28;;;8.72;100.00
6599;BME280;3335;43.198;27.918;2023-03-22T11:36:00;149493.69;;;8.92;100.00
6599;BME280;3335;43.198;27.918;2023-03-22T11:38:29;149467.47;;;8.81;100.00
6599;BME280;3335;43.198;27.918;2023-03-22T11:41:02;149450.03;;;8.74;100.00
6599;BME280;3335;43.198;27.918;2023-03-22T11:43:36;149478.69;;;8.86;100.00
6599;BME280;3335;43.198;27.918;2023-03-22T11:46:06;149464.97;;;8.80;100.00
6599;BME280;3335;43.198;27.918;2023-03-22T11:48:34;149452.50;;;8.75;100.00
6599;BME280;3335;43.198;27.918;2023-03-22T11:51:07;149462.47;;;8.79;100.00
6599;BME280;3335;43.198;27.918;2023-03-22T11:53:38;149501.16;;;8.95;100.00
6599;BME280;3335;43.198;27.918;2023-03-22T11:56:09;149488.66;;;8.90;100.00
6599;BME280;3335;43.198;27.918;2023-03-22T11:58:55;149488.66;;;8.90;100.00
6599;BME280;3335;43.198;27.918;2023-03-22T12:01:31;149492.44;;;8.91;100.00
6599;BME280;3335;43.198;27.918;2023-03-22T12:04:02;149468.72;;;8.82;100.00
6599;BME280;3335;43.198;27.918;2023-03-22T12:06:32;149486.16;;;8.89;100.00
6599;BME280;3335;43.198;27.918;2023-03-22T12:09:05;149493.69;;;8.92;100.00
6599;BME280;3335;43.198;27.918;2023-03-22T12:11:37;149518.63;;;9.02;100.00
6599;BME280;3335;43.198;27.918;2023-03-22T12:14:12;149533.59;;;9.08;100.00
6599;BME280;3335;43.198;27.918;2023-03-22T12:16:46;149541.09;;;9.11;100.00
6599;BME280;3335;43.198;27.918;2023-03-22T12:19:21;149541.09;;;9.11;100.00
6599;BME280;3335;43.198;27.918;2023-03-22T12:21:53;149538.59;;;9.10;100.00
6599;BME280;3335;43.198;27.918;2023-03-22T12:24:26;149548.56;;;9.14;100.00
6599;BME280;3335;43.198;27.918;2023-03-22T12:26:58;149548.56;;;9.14;100.00
6599;BME280;3335;43.198;27.918;2023-03-22T12:29:28;149561.06;;;9.19;100.00
6599;BME280;3335;43.198;27.918;2023-03-22T12:31:59;149578.53;;;9.26;100.00
6599;BME280;3335;43.198;27.918;2023-03-22T12:34:35;149578.53;;;9.26;100.00
6599;BME280;3335;43.198;27.918;2023-03-22T12:37:04;149566.06;;;9.21;100.00
6599;BME280;3335;43.198;27.918;2023-03-22T12:39:36;149584.75;;;9.29;100.00
6599;BME280;3335;43.198;27.918;2023-03-22T12:42:12;149613.50;;;9.40;100.00
6599;BME280;3335;43.198;27.918;2023-03-22T12:44:44;149649.69;;;9.55;100.00
6599;BME280;3335;43.198;27.918;2023-03-22T12:47:17;149637.19;;;9.50;100.00
6599;BME280;3335;43.198;27.918;2023-03-22T12:49:52;149653.41;;;9.56;100.00
6599;BME280;3335;43.198;27.918;2023-03-22T12:52:25;149669.66;;;9.63;100.00
6599;BME280;3335;43.198;27.918;2023-03-22T12:54:57;149640.91;;;9.51;100.00
6599;BME280;3335;43.198;27.918;2023-03-22T12:57:26;149655.91;;;9.57;100.00
6599;BME280;3335;43.198;27.918;2023-03-22T12:59:57;149628.44;;;9.46;100.00
6599;BME280;3335;43.198;27.918;2023-03-22T13:02:28;149591.03;;;9.31;100.00
6599;BME280;3335;43.198;27.918;2023-03-22T13:04:58;149627.19;;;9.46;100.00
6599;BME280;3335;43.198;27.918;2023-03-22T13:07:36;149638.41;;;9.50;100.00
6599;BME280;3335;43.198;27.918;2023-03-22T13:13:44;149624.72;;;9.45;100.00
6599;BME280;3335;43.198;27.918;2023-03-22T13:16:20;149635.94;;;9.49;100.00
6599;BME280;3335;43.198;27.918;2023-03-22T13:19:00;149613.50;;;9.40;100.00
6599;BME280;3335;43.198;27.918;2023-03-22T13:21:28;149581.00;;;9.27;100.00
6599;BME280;3335;43.198;27.918;2023-03-22T13:23:58;149653.41;;;9.56;100.00
6599;BME280;3335;43.198;27.918;2023-03-22T13:26:38;149637.19;;;9.50;100.00
6599;BME280;3335;43.198;27.918;2023-03-22T13:29:15;149698.34;;;9.75;100.00
6599;BME280;3335;43.198;27.918;2023-03-22T13:31:51;149652.16;;;9.56;100.00